createdAt,value
2023-03-19T00:00:36.950Z,9.45
2023-03-19T00:05:39.142Z,10.55
2023-03-19T00:10:42.700Z,8.95
2023-03-19T00:15:44.831Z,9.95
2023-03-19T00:20:46.951Z,11.40
2023-03-19T00:25:50.909Z,13.05
2023-03-19T00:30:53.067Z,9.88
2023-03-19T00:35:55.261Z,10.90
2023-03-19T00:40:58.782Z,12.30
2023-03-19T00:46:01.725Z,13.32
2023-03-19T00:51:04.840Z,11.07
2023-03-19T00:56:09.129Z,11.80
2023-03-19T01:01:14.266Z,11.95
2023-03-19T01:06:16.520Z,9.80
2023-03-19T01:11:20.059Z,11.68
2023-03-19T01:16:22.103Z,8.80
2023-03-19T01:21:24.248Z,10.32
2023-03-19T01:26:27.924Z,8.75
2023-03-19T01:31:30.262Z,11.30
2023-03-19T01:36:32.791Z,9.30
2023-03-19T01:41:36.360Z,9.75
2023-03-19T01:46:39.729Z,9.50
2023-03-19T01:51:45.548Z,9.23
2023-03-19T01:56:53.038Z,8.80
2023-03-19T02:01:59.370Z,8.23
2023-03-19T02:07:03.917Z,8.48
2023-03-19T02:12:09.161Z,11.52
2023-03-19T02:17:11.613Z,11.07
2023-03-19T02:22:15.097Z,9.20
2023-03-19T02:27:18.691Z,8.65
2023-03-19T02:32:20.798Z,8.52
2023-03-19T02:37:26.644Z,8.80
2023-03-19T02:42:30.361Z,8.55
2023-03-19T02:47:32.527Z,9.48
2023-03-19T02:52:35.088Z,9.45
2023-03-19T02:57:38.869Z,8.98
2023-03-19T03:02:41.067Z,9.85
2023-03-19T03:07:43.253Z,10.02
2023-03-19T03:12:46.828Z,9.82
2023-03-19T03:17:48.877Z,9.60
2023-03-19T03:22:51.021Z,9.52
2023-03-19T03:27:54.584Z,10.15
2023-03-19T03:32:56.793Z,9.82
2023-03-19T03:37:58.934Z,10.63
2023-03-19T03:43:02.694Z,10.05
2023-03-19T03:48:05.197Z,8.95
2023-03-19T03:53:07.786Z,9.48
2023-03-19T03:58:11.267Z,11.63
2023-03-19T04:03:13.670Z,10.85
2023-03-19T04:08:15.841Z,10.20
2023-03-19T04:13:19.383Z,10.10
2023-03-19T04:18:21.542Z,10.85
2023-03-19T04:23:23.798Z,12.70
2023-03-19T04:28:27.469Z,9.85
2023-03-19T04:33:30.446Z,12.68
2023-03-19T04:38:32.552Z,11.20
2023-03-19T04:43:36.157Z,10.82
2023-03-19T04:48:38.292Z,10.35
2023-03-19T04:53:40.675Z,12.52
2023-03-19T04:58:44.532Z,11.48
2023-03-19T05:03:46.746Z,12.68
2023-03-19T05:08:48.912Z,13.73
2023-03-19T05:13:52.522Z,12.68
2023-03-19T05:18:54.576Z,12.88
2023-03-19T05:23:56.695Z,12.23
2023-03-19T05:29:00.264Z,12.00
2023-03-19T05:34:02.558Z,12.30
2023-03-19T05:39:04.850Z,12.23
2023-03-19T05:44:08.408Z,13.27
2023-03-19T05:49:10.565Z,12.30
2023-03-19T05:54:12.745Z,12.73
2023-03-19T05:59:16.380Z,10.57
2023-03-19T06:04:18.621Z,12.57
2023-03-19T06:09:21.067Z,11.35
2023-03-19T06:14:25.054Z,11.27
2023-03-19T06:19:27.223Z,14.02
2023-03-19T06:24:29.311Z,11.00
2023-03-19T06:29:32.908Z,11.23
2023-03-19T06:34:35.055Z,12.23
2023-03-19T06:39:37.684Z,10.05
2023-03-19T06:44:41.346Z,10.52
2023-03-19T06:49:43.515Z,9.63
2023-03-19T06:54:45.585Z,9.18
2023-03-19T06:59:49.094Z,9.45
2023-03-19T07:04:51.180Z,8.93
2023-03-19T07:09:53.416Z,10.10
2023-03-19T07:14:56.995Z,10.60
2023-03-19T07:19:59.177Z,9.52
2023-03-19T07:25:01.354Z,8.15
2023-03-19T07:30:05.548Z,7.47
2023-03-19T07:35:08.884Z,9.05
2023-03-19T07:40:11.908Z,7.68
2023-03-19T07:45:15.545Z,7.13
2023-03-19T07:50:17.987Z,10.32
2023-03-19T07:55:20.182Z,8.32
2023-03-19T08:00:24.113Z,7.45
2023-03-19T08:05:26.302Z,7.47
2023-03-19T08:10:28.519Z,7.35
2023-03-19T08:15:32.148Z,6.93
2023-03-19T08:20:34.479Z,6.50
2023-03-19T08:25:36.898Z,8.73
2023-03-19T08:30:40.515Z,7.47
2023-03-19T08:35:42.924Z,6.93
2023-03-19T08:40:45.137Z,7.47
2023-03-19T08:45:49.553Z,7.65
2023-03-19T08:50:54.061Z,6.93
2023-03-19T08:55:57.827Z,7.28
2023-03-19T09:01:05.597Z,5.95
2023-03-19T09:06:10.141Z,6.22
2023-03-19T09:11:13.292Z,7.90
2023-03-19T09:16:19.355Z,7.20
2023-03-19T09:21:22.617Z,6.55
2023-03-19T09:26:24.890Z,6.75
2023-03-19T09:31:29.750Z,9.18
2023-03-19T09:36:32.575Z,7.93
2023-03-19T09:41:45.781Z,8.80
2023-03-19T09:46:53.700Z,6.60
2023-03-19T09:51:58.893Z,10.60
2023-03-19T09:57:01.920Z,6.93
2023-03-19T10:02:32.071Z,9.27
2023-03-19T10:07:58.000Z,6.70
2023-03-19T10:13:13.036Z,6.90
2023-03-19T10:18:21.009Z,8.07
2023-03-19T10:23:40.093Z,10.55
2023-03-19T10:28:44.374Z,8.02
2023-03-19T10:33:54.784Z,7.50
2023-03-19T10:38:56.887Z,6.93
2023-03-19T10:44:02.438Z,6.40
2023-03-19T10:49:11.291Z,6.90
2023-03-19T10:54:22.365Z,6.38
2023-03-19T10:59:26.969Z,6.80
2023-03-19T11:04:30.540Z,5.70
2023-03-19T11:09:37.114Z,6.30
2023-03-19T11:14:44.183Z,4.93
2023-03-19T11:20:05.893Z,4.53
2023-03-19T11:25:17.125Z,3.83
2023-03-19T11:30:22.994Z,5.60
2023-03-19T11:35:32.039Z,3.85
2023-03-19T11:40:43.688Z,5.75
2023-03-19T11:45:56.010Z,4.40
2023-03-19T11:51:08.212Z,4.10
2023-03-19T11:56:45.449Z,4.15
2023-03-19T12:02:15.142Z,4.45
2023-03-19T12:07:26.243Z,5.63
2023-03-19T12:12:36.664Z,5.38
2023-03-19T12:17:53.526Z,4.85
2023-03-19T12:23:05.863Z,3.95
2023-03-19T12:28:16.834Z,6.10
2023-03-19T12:33:33.833Z,4.13
2023-03-19T12:43:54.220Z,4.20
2023-03-19T12:49:01.012Z,4.03
2023-03-19T12:54:10.366Z,4.55
2023-03-19T12:59:20.589Z,5.13
2023-03-19T13:04:27.425Z,11.65
2023-03-19T13:09:37.068Z,6.80
2023-03-19T13:14:49.533Z,3.63
2023-03-19T13:19:53.053Z,7.30
2023-03-19T13:24:59.115Z,3.15
2023-03-19T13:30:08.568Z,3.70
2023-03-19T13:35:36.137Z,3.35
2023-03-19T13:40:49.223Z,3.70
2023-03-19T13:46:03.496Z,3.80
2023-03-19T13:51:22.657Z,4.22
2023-03-19T13:56:30.349Z,4.57
2023-03-19T14:01:41.299Z,4.25
2023-03-19T14:06:47.337Z,5.40
2023-03-19T14:11:50.936Z,3.35
2023-03-19T14:16:54.969Z,4.75
2023-03-19T14:22:10.911Z,4.60
2023-03-19T14:27:20.753Z,5.03
2023-03-19T14:32:31.992Z,3.42
2023-03-19T14:37:46.357Z,3.47
2023-03-19T14:43:00.987Z,3.53
2023-03-19T14:48:29.228Z,3.08
2023-03-19T14:53:39.202Z,3.35
2023-03-19T14:58:54.378Z,3.58
2023-03-19T15:04:00.049Z,4.10
2023-03-19T15:09:02.706Z,4.63
2023-03-19T15:14:24.679Z,2.53
2023-03-19T15:19:29.877Z,3.92
2023-03-19T15:24:32.042Z,2.97
2023-03-19T15:29:37.844Z,4.40
2023-03-19T15:34:40.668Z,3.27
2023-03-19T15:39:48.053Z,3.28
2023-03-19T15:49:59.621Z,7.05
2023-03-19T15:55:03.486Z,10.27
2023-03-19T16:00:10.222Z,9.55
2023-03-19T16:05:24.557Z,11.30
2023-03-19T16:10:36.960Z,9.05
2023-03-19T16:15:44.962Z,10.55
2023-03-19T16:20:57.486Z,11.30
2023-03-19T16:26:12.070Z,11.15
2023-03-19T16:31:24.765Z,11.40
2023-03-19T16:36:31.023Z,13.15
2023-03-19T16:41:33.904Z,11.88
2023-03-19T16:46:40.493Z,13.10
2023-03-19T16:51:42.712Z,12.00
2023-03-19T16:56:44.915Z,15.30
2023-03-19T17:01:48.478Z,12.30
2023-03-19T17:06:50.847Z,12.70
2023-03-19T17:11:53.610Z,16.63
2023-03-19T17:16:57.418Z,15.63
2023-03-19T17:21:59.812Z,15.45
2023-03-19T17:27:03.658Z,18.50
2023-03-19T17:32:16.528Z,18.15
2023-03-19T17:37:18.678Z,14.70
2023-03-19T17:42:22.972Z,17.75
2023-03-19T17:47:26.581Z,14.32
2023-03-19T17:52:29.587Z,12.10
2023-03-19T17:57:31.688Z,16.73
2023-03-19T18:02:35.557Z,13.27
2023-03-19T18:07:37.640Z,13.30
2023-03-19T18:12:39.735Z,14.77
2023-03-19T18:17:48.132Z,13.35
2023-03-19T18:22:50.797Z,15.05
2023-03-19T18:27:53.276Z,15.07
2023-03-19T18:32:59.563Z,14.70
2023-03-19T18:38:01.787Z,15.43
2023-03-19T18:43:04.189Z,17.60
2023-03-19T18:48:23.994Z,14.15
2023-03-19T18:53:26.264Z,17.67
2023-03-19T18:58:29.224Z,19.05
2023-03-19T19:03:34.065Z,18.08
2023-03-19T19:08:36.284Z,18.33
2023-03-19T19:13:53.410Z,17.05
2023-03-19T19:18:59.174Z,18.58
2023-03-19T19:24:01.277Z,21.15
2023-03-19T19:29:04.576Z,18.48
2023-03-19T19:34:10.832Z,18.38
2023-03-19T19:39:13.780Z,18.70
2023-03-19T19:44:19.130Z,18.08
2023-03-19T19:49:22.920Z,17.95
2023-03-19T19:54:25.135Z,20.15
2023-03-19T19:59:27.344Z,21.15
2023-03-19T20:04:30.884Z,22.67
2023-03-19T20:09:34.214Z,23.40
2023-03-19T20:14:45.282Z,19.00
2023-03-19T20:19:51.439Z,22.83
2023-03-19T20:24:53.962Z,24.90
2023-03-19T20:29:56.312Z,22.65
2023-03-19T20:35:00.560Z,21.10
2023-03-19T20:40:02.713Z,21.92
2023-03-19T20:45:05.963Z,22.48
2023-03-19T20:50:17.118Z,18.27
2023-03-19T20:55:21.194Z,15.45
2023-03-19T21:00:26.294Z,16.02
2023-03-19T21:05:35.232Z,13.65
2023-03-19T21:10:39.845Z,13.43
2023-03-19T21:15:42.795Z,17.08
2023-03-19T21:20:49.934Z,14.32
2023-03-19T21:25:52.713Z,18.85
2023-03-19T21:30:54.850Z,17.02
2023-03-19T21:35:59.646Z,12.23
2023-03-19T21:41:05.160Z,11.80
2023-03-19T21:46:23.291Z,11.40
2023-03-19T21:51:28.828Z,10.85
2023-03-19T21:56:34.690Z,9.85
2023-03-19T22:01:36.787Z,8.25
2023-03-19T22:06:40.377Z,9.57
2023-03-19T22:11:43.711Z,6.32
2023-03-19T22:16:46.582Z,6.03
2023-03-19T22:21:50.235Z,6.30
2023-03-19T22:26:57.504Z,5.88
2023-03-19T22:37:22.163Z,6.78
2023-03-19T22:42:25.818Z,6.20
2023-03-19T22:47:28.018Z,5.68
2023-03-19T22:52:31.503Z,6.43
2023-03-19T22:57:33.585Z,6.03
2023-03-19T23:02:35.667Z,6.35
2023-03-19T23:07:39.203Z,9.32
2023-03-19T23:12:41.285Z,6.78
2023-03-19T23:17:44.565Z,6.90
2023-03-19T23:22:48.621Z,7.10
2023-03-19T23:27:51.133Z,7.38
2023-03-19T23:32:53.362Z,6.72
2023-03-19T23:37:57.367Z,5.40
2023-03-19T23:43:00.686Z,5.13
2023-03-19T23:48:05.711Z,4.50
2023-03-19T23:53:18.043Z,3.35
2023-03-19T23:58:20.676Z,3.60
